Harbor View, Ohio
Current Conditions -  °F | °C
As of 12:53 AM on Saturday 29 Nov 2014 (Local Time) from KTDZ Reporting Station
Broken Clouds Broken Clouds  
Wind Chill: -5°   Ceiling: 12000
Heat Index: -1°   Visibility: 10mi
Dew Point: -6°   Wind: 8mph
Humidity: 69%   Direction: 160°SSE
Pressure: 30.06"   Gusts: NA
Location:  41.69°N, 83.44°W
Report Text: KTDZ 290553Z AUTO 16007KT 10SM BKN120 M01/M06 A3006 RMK AO2 SLP188 T10061056 11006 21022 56015 TSNO
Loading
Personal Weather Stations






























Interactive Weather Map New forecast layout! Learn more

10-Day Weather Forecast

Advertisements
Track Severe Weather on mobile